Time;durP1;ratioP1;P1;durP2;ratioP2;P2;SDS_P1;SDS_P2;PMS_P1;PMS_P2;Temp;Humidity;BMP_temperature;BMP_pressure;BME280_temperature;BME280_humidity;BME280_pressure;Samples;Min_cycle;Max_cycle;Signal;HPM_P1;HPM_P2
2020/12/22 00:02:24;;;;;;;5.67;4.33;;;;;;;10.58;78.22;96698.88;5111586;28;20219;-68
2020/12/22 00:04:49;;;;;;;4.70;4.30;;;;;;;10.41;78.73;96703.28;5106705;28;20180;-69
2020/12/22 00:07:15;;;;;;;5.20;4.70;;;;;;;10.45;78.78;96695.94;5112822;28;20447;-69
2020/12/22 00:09:41;;;;;;;6.53;4.30;;;;;;;10.51;78.26;96708.34;5107093;28;20648;-68
2020/12/22 00:12:11;;;;;;;4.13;3.73;;;;;;;10.65;77.75;96706.88;5111850;28;20203;-67
2020/12/22 00:14:37;;;;;;;5.10;4.43;;;;;;;10.98;76.42;96719.13;5112098;28;20675;-66
2020/12/22 00:17:04;;;;;;;4.03;3.70;;;;;;;10.87;76.64;96718.50;5076973;28;20446;-68
2020/12/22 00:19:30;;;;;;;4.50;4.10;;;;;;;11.12;75.78;96713.19;5111745;28;20311;-70
2020/12/22 00:21:55;;;;;;;4.03;3.53;;;;;;;11.04;75.81;96702.72;5111295;28;20865;-70
2020/12/22 00:24:21;;;;;;;4.17;3.80;;;;;;;10.81;77.05;96703.44;5111748;28;20185;-68
2020/12/22 00:26:50;;;;;;;4.50;3.87;;;;;;;11.25;75.28;96701.34;5112208;28;20234;-67
2020/12/22 00:29:15;;;;;;;4.57;4.17;;;;;;;11.22;75.05;96703.31;5111564;28;20181;-69
2020/12/22 00:31:41;;;;;;;4.00;3.33;;;;;;;11.02;75.92;96688.97;5108282;28;20430;-68
2020/12/22 00:34:07;;;;;;;4.17;3.63;;;;;;;11.18;75.27;96688.09;5105838;28;20193;-70
2020/12/22 00:36:32;;;;;;;4.10;3.30;;;;;;;11.43;74.74;96686.22;5093057;28;20590;-69
2020/12/22 00:38:58;;;;;;;3.77;3.47;;;;;;;11.27;74.88;96676.63;5103019;28;20196;-69
2020/12/22 00:41:24;;;;;;;3.63;3.20;;;;;;;11.40;74.93;96676.06;5112202;28;20200;-69
2020/12/22 00:43:49;;;;;;;3.30;3.03;;;;;;;11.31;75.25;96666.59;5111883;28;20670;-70
2020/12/22 00:46:16;;;;;;;3.27;2.90;;;;;;;11.39;74.92;96663.94;5101983;28;20177;-71
2020/12/22 00:48:48;;;;;;;3.03;2.80;;;;;;;11.42;74.91;96668.84;5111727;28;20184;-68
2020/12/22 00:51:21;;;;;;;3.20;2.90;;;;;;;11.40;74.78;96680.50;5096536;28;20506;-69
2020/12/22 00:53:47;;;;;;;2.80;2.33;;;;;;;11.37;75.42;96671.16;5092441;28;20431;-69
2020/12/22 00:56:12;;;;;;;2.63;2.43;;;;;;;11.39;75.35;96676.25;5092769;28;20460;-69
2020/12/22 00:58:38;;;;;;;2.33;2.17;;;;;;;11.47;75.18;96669.13;5093253;28;20231;-69
2020/12/22 01:01:04;;;;;;;3.73;2.37;;;;;;;11.58;74.83;96682.88;5111753;28;20193;-69
2020/12/22 01:03:30;;;;;;;2.50;2.30;;;;;;;11.50;75.52;96686.34;5105580;28;20185;-70
2020/12/22 01:05:56;;;;;;;2.80;2.27;;;;;;;11.84;73.81;96686.00;5109678;28;20431;-68
2020/12/22 01:08:21;;;;;;;2.60;2.40;;;;;;;11.50;74.73;96699.47;5104952;28;20563;-69
2020/12/22 01:10:47;;;;;;;2.20;2.00;;;;;;;11.68;74.96;96700.03;5111484;28;20238;-69
2020/12/22 01:13:13;;;;;;;3.57;1.80;;;;;;;11.71;74.43;96698.06;5111204;28;20193;-69
2020/12/22 01:15:38;;;;;;;2.50;2.30;;;;;;;11.91;73.86;96690.56;5111637;28;20205;-69
2020/12/22 01:18:04;;;;;;;3.20;2.43;;;;;;;11.73;75.04;96690.84;5112619;28;20685;-69
2020/12/22 01:20:30;;;;;;;1.97;1.77;;;;;;;11.82;74.29;96689.78;5076688;28;20639;-69
2020/12/22 01:22:55;;;;;;;1.90;1.80;;;;;;;11.85;74.07;96694.72;5111230;28;20181;-69
2020/12/22 01:25:21;;;;;;;1.63;1.53;;;;;;;11.80;74.13;96694.41;5111033;28;20269;-69
2020/12/22 01:27:47;;;;;;;1.70;1.60;;;;;;;12.10;73.09;96692.78;5111160;28;20293;-69
2020/12/22 01:30:12;;;;;;;1.50;1.40;;;;;;;11.74;74.60;96681.97;5093043;28;20623;-70
2020/12/22 01:32:38;;;;;;;2.27;2.07;;;;;;;11.54;75.36;96690.25;5087794;28;20224;-68
2020/12/22 01:35:04;;;;;;;1.47;1.33;;;;;;;11.93;74.14;96685.97;5109839;28;20258;-68
2020/12/22 01:37:30;;;;;;;1.80;1.40;;;;;;;11.51;75.83;96682.75;5076550;28;20197;-68
2020/12/22 01:39:56;;;;;;;1.63;1.20;;;;;;;12.08;73.33;96684.28;5092960;28;20445;-69
2020/12/22 01:42:22;;;;;;;2.13;1.00;;;;;;;12.03;73.48;96686.59;5095915;28;20185;-69
2020/12/22 01:44:47;;;;;;;1.83;1.20;;;;;;;11.53;75.40;96692.09;5115495;28;20177;-67
2020/12/22 01:47:14;;;;;;;1.10;1.00;;;;;;;11.84;74.15;96683.38;5115006;28;20255;-69
2020/12/22 01:49:39;;;;;;;0.90;0.80;;;;;;;11.39;75.41;96684.91;5105901;28;20185;-70
2020/12/22 01:52:05;;;;;;;1.60;1.20;;;;;;;12.03;73.75;96683.97;5095535;28;20430;-68
2020/12/22 01:54:31;;;;;;;0.90;0.70;;;;;;;11.74;74.21;96687.22;5096167;28;20211;-68
2020/12/22 01:56:57;;;;;;;1.27;0.80;;;;;;;11.89;73.68;96690.75;5096370;28;20219;-68
2020/12/22 01:59:23;;;;;;;1.00;0.83;;;;;;;11.88;73.79;96683.03;5114183;28;20264;-68
2020/12/22 02:01:50;;;;;;;0.80;0.60;;;;;;;11.68;74.76;96692.16;5114165;28;20441;-68
2020/12/22 02:04:17;;;;;;;0.87;0.63;;;;;;;11.93;73.71;96691.22;5090546;28;20431;-68
2020/12/22 02:06:43;;;;;;;0.80;0.50;;;;;;;12.03;74.02;96702.34;5114394;28;20456;-69
2020/12/22 02:09:10;;;;;;;0.80;0.60;;;;;;;12.18;73.13;96705.03;5113640;28;20537;-69
2020/12/22 02:11:37;;;;;;;0.90;0.60;;;;;;;11.94;74.18;96695.50;5114109;28;20181;-67
2020/12/22 02:14:04;;;;;;;0.80;0.60;;;;;;;11.84;74.22;96704.38;5107654;28;20491;-69
2020/12/22 02:16:29;;;;;;;1.77;0.60;;;;;;;12.11;73.95;96688.34;5106376;28;21014;-69
2020/12/22 02:18:56;;;;;;;0.80;0.50;;;;;;;11.78;74.87;96675.41;5113624;27;20518;-70
2020/12/22 02:21:23;;;;;;;0.80;0.50;;;;;;;11.86;75.19;96671.88;5114260;28;20181;-69
2020/12/22 02:23:49;;;;;;;0.70;0.50;;;;;;;11.79;75.46;96672.59;5113630;28;20426;-68
2020/12/22 02:26:25;;;;;;;1.20;0.60;;;;;;;12.16;73.41;96675.50;5112240;28;20430;-69
2020/12/22 02:28:51;;;;;;;0.80;0.60;;;;;;;11.80;74.55;96671.59;5104481;28;20485;-70
2020/12/22 02:31:18;;;;;;;1.37;0.50;;;;;;;11.82;75.01;96674.03;5113689;28;20448;-68
2020/12/22 02:33:45;;;;;;;0.80;0.50;;;;;;;12.16;73.71;96657.09;5106254;28;20760;-69
2020/12/22 02:36:14;;;;;;;1.47;0.50;;;;;;;12.31;72.98;96649.28;5105226;28;20525;-68
2020/12/22 02:38:41;;;;;;;0.90;0.57;;;;;;;11.90;74.20;96639.88;5113381;28;20430;-67
2020/12/22 02:41:06;;;;;;;1.50;0.60;;;;;;;11.63;75.34;96641.19;5113148;28;20422;-68
2020/12/22 02:43:32;;;;;;;1.10;0.50;;;;;;;11.90;74.92;96654.81;5112961;28;20434;-69
2020/12/22 02:45:58;;;;;;;1.00;0.50;;;;;;;12.36;73.36;96661.91;5111646;28;20647;-67
2020/12/22 02:48:24;;;;;;;0.77;0.50;;;;;;;12.25;73.56;96653.44;5111491;28;20212;-68
2020/12/22 02:50:50;;;;;;;0.73;0.47;;;;;;;12.24;73.78;96653.59;5113205;28;20901;-68
2020/12/22 02:53:16;;;;;;;0.80;0.50;;;;;;;12.14;73.69;96638.91;5113340;28;20610;-68
2020/12/22 02:55:42;;;;;;;0.70;0.50;;;;;;;12.14;74.15;96643.34;5112982;28;20205;-68
2020/12/22 02:58:07;;;;;;;1.43;0.60;;;;;;;12.20;74.10;96633.94;5113372;28;20782;-69
2020/12/22 03:00:33;;;;;;;1.00;0.50;;;;;;;12.40;73.13;96636.91;5112680;28;20189;-69
2020/12/22 03:02:59;;;;;;;0.80;0.50;;;;;;;11.98;75.32;96631.13;5107310;28;20490;-70
2020/12/22 03:05:24;;;;;;;0.80;0.50;;;;;;;12.14;74.81;96633.66;5113065;28;20655;-68
2020/12/22 03:07:51;;;;;;;0.90;0.60;;;;;;;12.41;73.36;96641.97;5113016;28;20284;-70
2020/12/22 03:10:17;;;;;;;0.90;0.60;;;;;;;12.46;73.30;96632.75;5114163;28;20662;-67
2020/12/22 03:12:44;;;;;;;0.80;0.63;;;;;;;12.14;74.30;96628.41;5112977;28;20542;-69
2020/12/22 03:15:10;;;;;;;0.83;0.50;;;;;;;12.26;74.35;96622.72;5110502;28;20470;-68
2020/12/22 03:17:37;;;;;;;0.90;0.53;;;;;;;12.30;74.56;96624.00;5108711;28;20953;-69
2020/12/22 03:20:05;;;;;;;4.80;0.60;;;;;;;12.47;73.68;96624.69;5113307;28;20457;-69
2020/12/22 03:22:32;;;;;;;2.07;0.60;;;;;;;12.18;74.17;96622.81;5113876;28;20435;-70
2020/12/22 03:24:58;;;;;;;0.93;0.63;;;;;;;12.22;74.53;96621.47;5114082;28;20443;-67
2020/12/22 03:27:24;;;;;;;1.17;0.50;;;;;;;12.66;72.76;96622.53;5111689;28;20485;-70
2020/12/22 03:29:50;;;;;;;0.80;0.57;;;;;;;12.61;72.49;96617.81;5114036;28;20181;-69
2020/12/22 03:32:15;;;;;;;0.80;0.50;;;;;;;12.37;73.78;96616.25;5113122;28;20343;-69
2020/12/22 03:34:41;;;;;;;1.83;0.50;;;;;;;12.39;73.40;96612.44;5106149;28;20205;-68
2020/12/22 03:37:07;;;;;;;0.80;0.50;;;;;;;12.26;74.69;96606.97;5111273;28;20365;-69
2020/12/22 03:39:33;;;;;;;0.90;0.50;;;;;;;12.24;74.38;96611.56;5112928;28;20193;-69
2020/12/22 03:41:58;;;;;;;1.20;0.53;;;;;;;12.36;74.43;96618.03;5111999;28;20185;-70
2020/12/22 03:44:24;;;;;;;1.77;0.50;;;;;;;12.33;73.54;96613.16;5110894;28;20181;-70
2020/12/22 03:46:50;;;;;;;2.50;0.60;;;;;;;12.07;74.68;96613.50;5111196;28;20583;-67
2020/12/22 03:49:16;;;;;;;0.80;0.50;;;;;;;12.19;74.92;96609.47;5108626;28;20184;-69
2020/12/22 03:51:43;;;;;;;0.70;0.40;;;;;;;12.26;74.77;96627.97;5111515;28;20434;-68
2020/12/22 03:54:09;;;;;;;0.80;0.50;;;;;;;12.53;73.28;96634.50;5111958;28;20452;-69
2020/12/22 03:56:35;;;;;;;1.10;0.50;;;;;;;12.71;71.92;96636.78;5112354;28;20478;-69
2020/12/22 03:59:01;;;;;;;0.80;0.50;;;;;;;12.75;72.26;96638.03;5112288;28;20423;-69
2020/12/22 04:01:27;;;;;;;0.80;0.60;;;;;;;12.35;74.44;96641.88;5105815;28;20177;-69
2020/12/22 04:03:52;;;;;;;0.80;0.50;;;;;;;12.25;74.68;96648.19;5102566;28;20197;-69
2020/12/22 04:06:18;;;;;;;2.10;0.53;;;;;;;12.27;73.34;96658.50;5105255;28;20548;-68
2020/12/22 04:08:44;;;;;;;0.90;0.53;;;;;;;12.82;72.19;96653.91;5111320;28;20278;-70
2020/12/22 04:11:09;;;;;;;0.77;0.47;;;;;;;12.26;74.81;96649.81;5111570;28;20640;-70
2020/12/22 04:13:35;;;;;;;0.80;0.50;;;;;;;12.44;73.99;96662.66;5111765;28;20185;-69
2020/12/22 04:16:05;;;;;;;0.80;0.50;;;;;;;12.28;74.74;96668.88;5097889;28;20201;-68
2020/12/22 04:18:31;;;;;;;0.90;0.50;;;;;;;12.70;73.35;96663.22;5110679;28;20450;-68
2020/12/22 04:20:58;;;;;;;0.90;0.50;;;;;;;12.55;73.53;96679.78;5103008;28;21018;-68
2020/12/22 04:23:27;;;;;;;0.90;0.50;;;;;;;12.43;74.12;96679.41;5111785;28;20727;-70
2020/12/22 04:25:53;;;;;;;0.77;0.50;;;;;;;12.26;74.41;96670.84;5111080;28;20430;-68
2020/12/22 04:28:18;;;;;;;0.80;0.50;;;;;;;12.82;72.95;96674.16;5087248;28;20469;-68
2020/12/22 04:30:45;;;;;;;0.80;0.50;;;;;;;12.84;72.35;96669.53;5111850;27;20739;-67
2020/12/22 04:33:11;;;;;;;0.80;0.50;;;;;;;12.51;73.53;96651.41;5105682;28;20189;-70
2020/12/22 04:35:37;;;;;;;0.77;0.40;;;;;;;12.76;73.05;96670.41;5111714;28;20490;-75
2020/12/22 04:38:04;;;;;;;0.70;0.40;;;;;;;12.70;73.46;96671.94;5111032;28;20999;-70
2020/12/22 04:40:30;;;;;;;0.70;0.40;;;;;;;12.74;73.39;96670.59;5111152;28;20426;-67
2020/12/22 04:42:58;;;;;;;0.83;0.50;;;;;;;12.82;73.14;96676.78;5088686;28;20747;-68
2020/12/22 04:45:30;;;;;;;0.90;0.50;;;;;;;12.39;74.65;96674.69;5095385;28;20518;-71
2020/12/22 04:47:56;;;;;;;0.80;0.57;;;;;;;12.59;74.22;96670.56;5111287;28;20828;-70
2020/12/22 04:50:22;;;;;;;0.80;0.50;;;;;;;12.62;74.70;96674.63;5098689;28;20520;-68
2020/12/22 04:52:50;;;;;;;1.30;0.90;;;;;;;12.92;73.58;96669.44;5088301;28;20439;-67
2020/12/22 04:55:18;;;;;;;0.90;0.50;;;;;;;12.72;73.92;96666.50;5097993;28;20455;-69
2020/12/22 04:57:48;;;;;;;0.70;0.50;;;;;;;12.61;73.72;96662.50;5090808;28;20447;-69
2020/12/22 05:00:16;;;;;;;0.97;0.60;;;;;;;12.77;73.91;96663.34;5090102;28;20428;-69
2020/12/22 05:02:43;;;;;;;4.50;0.80;;;;;;;12.66;74.78;96660.16;5106264;28;20434;-68
2020/12/22 05:05:10;;;;;;;1.00;0.50;;;;;;;12.51;74.73;96662.75;5082533;28;20423;-69
2020/12/22 05:07:36;;;;;;;1.43;0.50;;;;;;;12.77;73.84;96655.44;5090574;28;20503;-69
2020/12/22 05:10:12;;;;;;;1.10;0.60;;;;;;;12.94;73.13;96640.31;5110800;28;20479;-70
2020/12/22 05:12:39;;;;;;;1.30;0.57;;;;;;;12.85;73.41;96655.38;5110390;28;20458;-69
2020/12/22 05:15:06;;;;;;;0.83;0.50;;;;;;;12.41;75.12;96646.44;5110751;28;20461;-69
2020/12/22 05:17:40;;;;;;;1.13;0.60;;;;;;;12.42;75.84;96664.63;5107110;28;20449;-69
2020/12/22 05:20:08;;;;;;;1.77;0.70;;;;;;;12.25;76.30;96668.38;5096812;28;20983;-69
2020/12/22 05:22:36;;;;;;;1.33;0.60;;;;;;;12.46;75.49;96675.59;5098347;28;20434;-69
2020/12/22 05:25:03;;;;;;;0.80;0.60;;;;;;;12.62;74.60;96685.16;5115416;28;20501;-70
2020/12/22 05:27:29;;;;;;;0.80;0.40;;;;;;;12.52;75.01;96684.59;5096738;28;20455;-69
2020/12/22 05:29:59;;;;;;;0.90;0.80;;;;;;;12.35;75.39;96689.97;5096801;28;20426;-69
2020/12/22 05:32:25;;;;;;;0.80;0.50;;;;;;;12.89;73.64;96680.31;5079166;28;20418;-69
2020/12/22 05:34:51;;;;;;;0.80;0.50;;;;;;;12.55;74.93;96677.16;5096144;28;20461;-69
2020/12/22 05:37:17;;;;;;;1.63;0.50;;;;;;;12.43;75.20;96683.84;5095702;28;20431;-68
2020/12/22 05:39:43;;;;;;;2.00;0.47;;;;;;;12.56;75.30;96680.63;5107672;28;20430;-69
2020/12/22 05:42:13;;;;;;;0.80;0.50;;;;;;;12.45;75.26;96676.59;5095645;28;20208;-70
2020/12/22 05:44:45;;;;;;;0.77;0.40;;;;;;;12.36;76.18;96681.09;5114595;28;20188;-69
2020/12/22 05:47:14;;;;;;;0.90;0.43;;;;;;;12.71;74.51;96659.63;5097933;28;21232;-70
2020/12/22 05:49:51;;;;;;;1.90;0.50;;;;;;;13.05;73.35;96674.88;5114731;28;20434;-70
2020/12/22 05:52:20;;;;;;;1.00;0.53;;;;;;;12.36;75.13;96678.47;5083118;28;20422;-69
2020/12/22 05:54:46;;;;;;;0.80;0.50;;;;;;;12.80;74.12;96691.91;5113034;28;20457;-71
2020/12/22 05:57:12;;;;;;;0.80;0.40;;;;;;;12.56;75.01;96707.72;5114389;28;20446;-70
2020/12/22 05:59:38;;;;;;;0.80;0.50;;;;;;;12.66;74.28;96707.47;5114189;28;20438;-70
2020/12/22 06:02:04;;;;;;;1.83;0.50;;;;;;;12.85;74.43;96705.34;5079364;28;20431;-69
2020/12/22 06:04:30;;;;;;;0.80;0.50;;;;;;;12.93;73.71;96713.16;5114233;28;20427;-70
2020/12/22 06:06:56;;;;;;;1.43;0.60;;;;;;;12.90;74.30;96709.06;5095277;28;21022;-69
2020/12/22 06:09:22;;;;;;;0.70;0.50;;;;;;;12.73;74.21;96711.00;5108240;28;20188;-70
2020/12/22 06:11:48;;;;;;;2.60;0.50;;;;;;;13.24;72.59;96725.31;5110700;28;20500;-70
2020/12/22 06:14:21;;;;;;;1.40;0.60;;;;;;;13.35;72.05;96726.69;5095482;28;20466;-68
2020/12/22 06:16:47;;;;;;;0.80;0.53;;;;;;;13.17;72.83;96717.34;5095896;28;20868;-68
2020/12/22 06:19:13;;;;;;;1.63;0.60;;;;;;;13.39;71.77;96727.16;5113991;28;20513;-68
2020/12/22 06:21:39;;;;;;;0.80;0.47;;;;;;;13.15;72.44;96721.16;5098646;28;20480;-70
2020/12/22 06:24:04;;;;;;;1.80;0.47;;;;;;;12.65;74.97;96716.34;5094282;28;20185;-69
2020/12/22 06:26:30;;;;;;;0.80;0.60;;;;;;;13.05;73.46;96730.13;5093051;28;20724;-69
2020/12/22 06:28:56;;;;;;;0.90;0.50;;;;;;;13.42;71.71;96739.97;5095209;28;20233;-69
2020/12/22 06:31:23;;;;;;;2.30;0.50;;;;;;;13.36;71.59;96723.88;5092985;28;20242;-69
2020/12/22 06:33:50;;;;;;;1.10;0.60;;;;;;;13.30;72.25;96715.88;5092682;28;20182;-69
2020/12/22 06:36:17;;;;;;;4.23;2.47;;;;;;;13.41;72.20;96719.91;5093108;28;20463;-68
2020/12/22 06:38:59;;;;;;;1.90;1.13;;;;;;;13.55;71.54;96715.63;5093542;28;20419;-67
2020/12/22 06:41:34;;;;;;;3.23;0.60;;;;;;;13.32;72.59;96709.47;5087281;28;20424;-69
2020/12/22 06:44:22;;;;;;;1.37;0.70;;;;;;;13.06;72.95;96723.03;5092820;28;20422;-70
2020/12/22 06:46:52;;;;;;;1.13;0.80;;;;;;;12.97;73.80;96714.44;5092571;28;20964;-70
2020/12/22 06:49:19;;;;;;;1.33;0.90;;;;;;;13.19;73.28;96709.28;5093188;28;20427;-71
2020/12/22 06:51:45;;;;;;;1.30;0.60;;;;;;;13.64;71.10;96711.91;5083197;28;20806;-70
2020/12/22 06:54:14;;;;;;;1.20;0.70;;;;;;;13.42;72.05;96724.19;5092721;28;20553;-68
2020/12/22 06:56:47;;;;;;;1.00;0.60;;;;;;;13.06;73.34;96734.41;5095502;28;20205;-67
2020/12/22 06:59:44;;;;;;;0.87;0.60;;;;;;;13.48;72.12;96737.44;5085450;28;20532;-68
2020/12/22 07:02:30;;;;;;;1.67;0.60;;;;;;;12.94;73.51;96724.47;5082053;28;20427;-69
2020/12/22 07:04:56;;;;;;;0.90;0.67;;;;;;;13.47;71.96;96741.06;5112210;28;20431;-69
2020/12/22 07:07:22;;;;;;;1.00;0.60;;;;;;;13.28;72.36;96731.06;5111968;28;21031;-71
2020/12/22 07:09:49;;;;;;;0.87;0.60;;;;;;;13.48;71.08;96731.38;5113500;28;20510;-68
2020/12/22 07:12:16;;;;;;;0.80;0.50;;;;;;;13.07;73.03;96724.69;5113792;28;20184;-68
2020/12/22 07:14:44;;;;;;;1.10;0.90;;;;;;;13.56;71.41;96723.38;5113196;28;20454;-68
2020/12/22 07:17:12;;;;;;;1.70;0.73;;;;;;;13.27;72.20;96724.97;5104735;28;20441;-68
2020/12/22 07:19:38;;;;;;;0.80;0.60;;;;;;;13.36;71.77;96744.13;5097515;28;20907;-68
2020/12/22 07:22:05;;;;;;;0.90;0.70;;;;;;;13.23;72.30;96744.75;5113454;28;20520;-69
2020/12/22 07:24:38;;;;;;;1.60;0.73;;;;;;;13.50;70.91;96738.06;5105265;28;20186;-69
2020/12/22 07:27:06;;;;;;;1.33;0.60;;;;;;;13.52;71.02;96732.63;5087491;28;20937;-69
2020/12/22 07:29:35;;;;;;;1.00;0.90;;;;;;;13.98;69.11;96742.94;5087440;28;20459;-68
2020/12/22 07:32:02;;;;;;;1.30;0.50;;;;;;;13.56;69.92;96744.44;5087235;28;20431;-68
2020/12/22 07:34:28;;;;;;;0.80;0.70;;;;;;;13.51;70.49;96752.03;5085545;28;20459;-71
2020/12/22 07:37:10;;;;;;;1.40;1.00;;;;;;;13.88;69.12;96752.13;5100910;28;20485;-69
2020/12/22 07:39:37;;;;;;;1.00;0.60;;;;;;;13.96;68.52;96755.47;5111895;28;20484;-69
2020/12/22 07:42:21;;;;;;;0.80;0.50;;;;;;;13.26;71.05;96754.09;5107716;28;20432;-70
2020/12/22 07:44:47;;;;;;;0.97;0.60;;;;;;;13.70;69.42;96755.13;5112987;28;20418;-71
2020/12/22 07:47:13;;;;;;;1.63;0.60;;;;;;;13.73;69.64;96758.22;5112486;28;20462;-68
2020/12/22 07:49:40;;;;;;;0.70;0.40;;;;;;;13.30;70.86;96753.56;5112423;28;20437;-69
2020/12/22 07:52:06;;;;;;;0.90;0.50;;;;;;;13.89;68.64;96749.28;5094376;28;20473;-68
2020/12/22 07:54:32;;;;;;;1.33;0.70;;;;;;;13.59;69.79;96749.34;5109874;28;20965;-68
2020/12/22 07:57:00;;;;;;;0.80;0.60;;;;;;;13.81;68.76;96765.19;5104655;28;20275;-68
2020/12/22 07:59:26;;;;;;;0.80;0.60;;;;;;;13.97;68.66;96767.63;5099829;28;20508;-70
2020/12/22 08:01:52;;;;;;;1.30;0.60;;;;;;;14.07;67.64;96762.06;5073955;28;20529;-69
2020/12/22 08:04:21;;;;;;;0.90;0.60;;;;;;;14.12;67.60;96782.56;5106476;28;20898;-70
2020/12/22 08:07:06;;;;;;;1.20;0.80;;;;;;;14.00;68.38;96763.81;5077786;28;20447;-70
2020/12/22 08:09:34;;;;;;;0.90;0.53;;;;;;;13.93;68.80;96766.38;5080755;28;20434;-71
2020/12/22 08:12:03;;;;;;;1.13;0.60;;;;;;;14.25;67.45;96763.47;5108852;28;20520;-71
2020/12/22 08:14:31;;;;;;;1.10;0.60;;;;;;;14.05;68.31;96757.97;5103778;28;20477;-70
2020/12/22 08:17:06;;;;;;;1.40;1.10;;;;;;;13.93;68.91;96776.91;5078807;28;20815;-69
2020/12/22 08:19:36;;;;;;;1.03;0.60;;;;;;;13.97;68.60;96770.28;5092602;28;20952;-69
2020/12/22 08:22:04;;;;;;;1.00;0.67;;;;;;;14.04;68.69;96777.41;5079466;28;20427;-69
2020/12/22 08:24:34;;;;;;;0.80;0.50;;;;;;;13.58;70.11;96774.03;5093626;28;20446;-69
2020/12/22 08:27:00;;;;;;;1.00;0.70;;;;;;;13.70;70.27;96765.66;5110015;28;20553;-71
2020/12/22 08:29:27;;;;;;;0.83;0.53;;;;;;;14.19;68.49;96775.56;5087069;28;20427;-69
2020/12/22 08:31:59;;;;;;;0.80;0.50;;;;;;;13.72;69.44;96772.38;5095584;28;20273;-69
2020/12/22 08:34:25;;;;;;;0.90;0.50;;;;;;;13.98;68.86;96779.81;5112079;28;20529;-70
2020/12/22 08:36:50;;;;;;;5.33;0.60;;;;;;;13.78;69.74;96781.34;5111261;28;20469;-69
2020/12/22 08:39:18;;;;;;;2.07;0.63;;;;;;;13.75;69.67;96784.34;5100578;28;20177;-71
2020/12/22 08:41:55;;;;;;;2.07;0.77;;;;;;;13.77;69.91;96788.47;5107365;28;20312;-72
2020/12/22 08:44:22;;;;;;;1.73;1.03;;;;;;;13.82;69.59;96791.34;5066373;28;20430;-70
2020/12/22 08:46:48;;;;;;;1.77;0.80;;;;;;;13.27;71.58;96797.84;5088489;28;20467;-71
2020/12/22 08:49:20;;;;;;;1.00;0.53;;;;;;;13.61;70.42;96805.22;5086730;28;20458;-69
2020/12/22 08:51:46;;;;;;;2.40;0.80;;;;;;;13.86;69.35;96797.06;5094267;28;20186;-69
2020/12/22 08:54:13;;;;;;;0.80;0.60;;;;;;;14.02;68.71;96800.50;5096564;28;20496;-69
2020/12/22 08:56:39;;;;;;;1.30;0.90;;;;;;;13.55;70.29;96792.81;5115501;28;20446;-69
2020/12/22 08:59:10;;;;;;;1.10;0.70;;;;;;;13.49;70.85;96802.25;5115435;28;20437;-70
2020/12/22 09:01:43;;;;;;;1.17;0.70;;;;;;;14.18;68.38;96820.53;5101880;28;20430;-69
2020/12/22 09:04:10;;;;;;;1.57;0.70;;;;;;;13.89;68.91;96811.69;5100963;28;20441;-70
2020/12/22 09:06:37;;;;;;;1.00;0.70;;;;;;;13.56;70.40;96817.31;5089059;28;20420;-69
2020/12/22 09:09:05;;;;;;;2.50;0.60;;;;;;;13.84;70.32;96825.41;5090445;28;21138;-69
2020/12/22 09:11:31;;;;;;;1.30;1.20;;;;;;;14.23;69.25;96836.63;5070854;28;20477;-68
2020/12/22 09:14:07;;;;;;;0.90;0.70;;;;;;;14.25;69.09;96826.72;5077074;28;20848;-69
2020/12/22 09:16:46;;;;;;;0.87;0.60;;;;;;;13.63;71.32;96834.84;5110174;28;20580;-68
2020/12/22 09:19:12;;;;;;;1.37;0.60;;;;;;;14.31;69.58;96825.16;5115236;28;20510;-68
2020/12/22 09:21:38;;;;;;;0.90;0.60;;;;;;;14.31;69.36;96836.50;5099040;28;20427;-69
2020/12/22 09:24:04;;;;;;;0.90;0.60;;;;;;;14.16;69.83;96828.66;5111415;28;20185;-71
2020/12/22 09:26:30;;;;;;;0.77;0.47;;;;;;;13.50;72.29;96822.31;5093656;28;20212;-70
2020/12/22 09:28:56;;;;;;;1.10;0.80;;;;;;;13.60;72.01;96834.38;5093527;28;20420;-69
2020/12/22 09:31:26;;;;;;;0.80;0.57;;;;;;;13.91;71.42;96826.31;5071142;28;20185;-69
2020/12/22 09:33:52;;;;;;;0.93;0.70;;;;;;;13.45;73.04;96826.47;5107260;27;20178;-69
2020/12/22 09:36:18;;;;;;;0.90;0.60;;;;;;;13.80;72.21;96821.50;5117289;27;20468;-69
2020/12/22 09:38:43;;;;;;;0.90;0.67;;;;;;;13.87;72.17;96830.28;5111590;28;20185;-70
2020/12/22 09:41:09;;;;;;;1.53;0.63;;;;;;;13.60;73.38;96827.31;5091771;28;20204;-69
2020/12/22 09:43:35;;;;;;;1.93;0.50;;;;;;;13.75;72.94;96821.22;5088444;28;20278;-70
2020/12/22 09:46:01;;;;;;;0.80;0.50;;;;;;;13.99;72.12;96817.50;5091746;28;20446;-70
2020/12/22 09:48:27;;;;;;;0.80;0.50;;;;;;;13.98;72.24;96821.13;5091396;28;20721;-69
2020/12/22 09:50:52;;;;;;;1.40;0.50;;;;;;;13.42;74.43;96832.91;5113228;28;20331;-69
2020/12/22 09:53:19;;;;;;;0.90;0.60;;;;;;;13.58;73.59;96837.22;5114676;28;20248;-69
2020/12/22 09:55:45;;;;;;;1.20;0.80;;;;;;;13.56;73.28;96833.94;5113833;28;20213;-68
2020/12/22 09:58:11;;;;;;;1.00;0.50;;;;;;;14.09;71.75;96835.66;5113786;28;20443;-69
2020/12/22 10:00:36;;;;;;;0.80;0.67;;;;;;;14.24;70.78;96830.38;5114858;28;20191;-68
2020/12/22 10:03:02;;;;;;;1.20;0.90;;;;;;;14.18;71.03;96829.28;5097458;28;20192;-69
2020/12/22 10:05:28;;;;;;;1.00;0.70;;;;;;;14.24;70.28;96833.81;5113381;28;20177;-68
2020/12/22 10:07:54;;;;;;;1.23;0.80;;;;;;;13.83;71.29;96823.78;5113171;28;20472;-69
2020/12/22 10:10:19;;;;;;;1.10;0.93;;;;;;;14.23;70.17;96829.56;5099551;28;20177;-68
2020/12/22 10:12:45;;;;;;;2.10;0.60;;;;;;;13.87;71.01;96834.75;5109413;28;20192;-68
2020/12/22 10:15:11;;;;;;;0.90;0.73;;;;;;;14.29;69.64;96838.53;5096084;28;20200;-69
2020/12/22 10:17:37;;;;;;;1.23;0.67;;;;;;;14.07;70.46;96835.03;5108813;28;20232;-68
2020/12/22 10:20:04;;;;;;;0.80;0.60;;;;;;;14.42;69.60;96833.44;5107749;28;20177;-72
2020/12/22 10:22:30;;;;;;;2.00;1.00;;;;;;;14.33;69.50;96833.72;5109094;28;20192;-69
2020/12/22 10:24:56;;;;;;;6.80;0.70;;;;;;;14.09;70.38;96825.13;5114048;28;20427;-71
2020/12/22 10:27:22;;;;;;;1.27;0.73;;;;;;;14.18;69.75;96833.72;5115094;28;20487;-70
2020/12/22 10:29:47;;;;;;;1.40;1.10;;;;;;;14.60;68.49;96842.72;5104907;28;20185;-69
2020/12/22 10:32:13;;;;;;;1.63;0.70;;;;;;;14.50;68.64;96845.66;5098699;28;20673;-70
2020/12/22 10:34:39;;;;;;;1.60;0.60;;;;;;;14.25;69.52;96840.72;5105983;28;20197;-69
2020/12/22 10:37:05;;;;;;;1.10;0.70;;;;;;;14.34;69.08;96844.06;5114671;28;20200;-69
2020/12/22 10:39:30;;;;;;;2.10;0.70;;;;;;;14.69;68.09;96843.47;5114384;28;20181;-68
2020/12/22 10:41:57;;;;;;;2.73;2.00;;;;;;;14.52;68.46;96843.66;5104265;28;20260;-70
2020/12/22 10:44:23;;;;;;;1.30;0.90;;;;;;;14.78;67.71;96852.06;5113264;28;20196;-70
2020/12/22 10:46:49;;;;;;;0.90;0.73;;;;;;;14.50;68.58;96850.94;5114233;28;20462;-69
2020/12/22 10:49:15;;;;;;;1.23;0.70;;;;;;;14.99;66.64;96852.06;5114158;28;20180;-70
2020/12/22 10:51:41;;;;;;;1.43;0.90;;;;;;;14.73;67.56;96845.53;5095651;28;20918;-69
2020/12/22 10:54:06;;;;;;;1.80;1.60;;;;;;;15.04;66.49;96840.94;5114061;28;20227;-69
2020/12/22 10:56:32;;;;;;;1.17;0.70;;;;;;;14.57;67.56;96846.56;5113899;28;20672;-68
2020/12/22 10:59:00;;;;;;;0.80;0.60;;;;;;;14.55;67.80;96864.38;5112978;28;20226;-68
2020/12/22 11:01:26;;;;;;;1.00;0.70;;;;;;;14.80;67.55;96852.72;5101595;28;20182;-69
2020/12/22 11:03:52;;;;;;;1.00;0.90;;;;;;;14.73;67.51;96844.72;5108182;28;20485;-68
2020/12/22 11:08:44;;;;;;;1.10;0.73;;;;;;;14.76;68.04;96849.59;5112798;28;20208;-69
2020/12/22 11:11:10;;;;;;;1.30;0.50;;;;;;;14.95;66.80;96858.72;5095115;28;20188;-68
2020/12/22 11:13:36;;;;;;;1.30;0.80;;;;;;;14.70;67.75;96845.91;5089563;28;20935;-69
2020/12/22 11:16:04;;;;;;;1.70;0.80;;;;;;;14.83;67.28;96854.94;5105011;28;20303;-69
2020/12/22 11:18:31;;;;;;;1.00;0.70;;;;;;;14.59;68.20;96851.63;5112711;28;21028;-69
2020/12/22 11:20:57;;;;;;;1.00;0.70;;;;;;;14.75;67.79;96858.53;5113197;28;20433;-69
2020/12/22 11:23:22;;;;;;;2.03;0.90;;;;;;;14.94;67.17;96851.00;5112669;28;20853;-69
2020/12/22 11:25:48;;;;;;;1.00;0.80;;;;;;;14.70;68.13;96853.81;5112248;28;20698;-69
2020/12/22 11:28:14;;;;;;;2.80;0.70;;;;;;;14.95;67.00;96856.09;5112211;28;20201;-69
2020/12/22 11:30:40;;;;;;;1.10;0.70;;;;;;;14.77;67.79;96847.81;5113112;28;20189;-68
2020/12/22 11:33:05;;;;;;;0.97;0.70;;;;;;;15.03;67.28;96849.88;5092780;28;20197;-67
2020/12/22 11:35:31;;;;;;;0.90;0.77;;;;;;;14.85;68.00;96848.50;5106516;28;20216;-69
2020/12/22 11:37:57;;;;;;;0.90;0.60;;;;;;;14.93;67.73;96858.13;5111701;28;20197;-69